sensor_id;sensor_type;location;lat;lon;timestamp;pressure;altitude;pressure_sealevel;temperature;humidity
59009;BME280;44794;42.652;23.318;2023-12-22T00:02:33;93068.16;;;4.56;92.78
59009;BME280;44794;42.652;23.318;2023-12-22T00:05:09;93070.50;;;4.48;93.45
59009;BME280;44794;42.652;23.318;2023-12-22T00:07:34;93070.16;;;4.42;93.04
59009;BME280;44794;42.652;23.318;2023-12-22T00:10:02;93074.66;;;4.27;92.93
59009;BME280;44794;42.652;23.318;2023-12-22T00:12:39;93062.28;;;4.32;93.64
59009;BME280;44794;42.652;23.318;2023-12-22T00:15:10;93064.28;;;4.40;93.31
59009;BME280;44794;42.652;23.318;2023-12-22T00:17:44;93075.97;;;4.33;93.58
59009;BME280;44794;42.652;23.318;2023-12-22T00:20:10;93051.53;;;4.27;94.27
59009;BME280;44794;42.652;23.318;2023-12-22T00:22:38;93038.94;;;4.24;96.36
59009;BME280;44794;42.652;23.318;2023-12-22T00:25:03;93051.66;;;4.37;95.63
59009;BME280;44794;42.652;23.318;2023-12-22T00:27:36;93051.84;;;4.12;95.49
59009;BME280;44794;42.652;23.318;2023-12-22T00:30:06;93040.44;;;4.27;97.60
59009;BME280;44794;42.652;23.318;2023-12-22T00:32:32;93036.25;;;4.37;96.30
59009;BME280;44794;42.652;23.318;2023-12-22T00:34:57;93032.66;;;4.50;95.74
59009;BME280;44794;42.652;23.318;2023-12-22T00:37:28;93022.13;;;4.31;95.93
59009;BME280;44794;42.652;23.318;2023-12-22T00:39:53;93003.88;;;3.67;100.00
59009;BME280;44794;42.652;23.318;2023-12-22T00:42:18;93013.66;;;4.07;100.00
59009;BME280;44794;42.652;23.318;2023-12-22T00:44:44;93004.94;;;4.21;99.06
59009;BME280;44794;42.652;23.318;2023-12-22T00:47:14;92984.63;;;3.62;100.00
59009;BME280;44794;42.652;23.318;2023-12-22T00:49:42;92997.34;;;3.63;100.00
59009;BME280;44794;42.652;23.318;2023-12-22T00:52:07;92986.31;;;3.84;100.00
59009;BME280;44794;42.652;23.318;2023-12-22T00:54:33;92986.78;;;2.97;100.00
59009;BME280;44794;42.652;23.318;2023-12-22T00:56:58;92975.47;;;3.47;100.00
59009;BME280;44794;42.652;23.318;2023-12-22T00:59:23;92989.97;;;3.59;100.00
59009;BME280;44794;42.652;23.318;2023-12-22T01:01:51;92975.56;;;3.90;100.00
59009;BME280;44794;42.652;23.318;2023-12-22T01:04:16;92996.38;;;3.98;100.00
59009;BME280;44794;42.652;23.318;2023-12-22T01:06:42;92994.41;;;4.02;100.00
59009;BME280;44794;42.652;23.318;2023-12-22T01:09:07;93016.13;;;4.09;100.00
59009;BME280;44794;42.652;23.318;2023-12-22T01:11:32;93004.47;;;4.16;100.00
59009;BME280;44794;42.652;23.318;2023-12-22T01:13:58;93014.91;;;4.58;100.00
59009;BME280;44794;42.652;23.318;2023-12-22T01:16:23;93007.19;;;4.80;98.00
59009;BME280;44794;42.652;23.318;2023-12-22T01:18:49;93013.59;;;4.85;97.21
59009;BME280;44794;42.652;23.318;2023-12-22T01:21:15;93021.66;;;4.92;94.54
59009;BME280;44794;42.652;23.318;2023-12-22T01:23:40;93007.84;;;5.04;93.71
59009;BME280;44794;42.652;23.318;2023-12-22T01:26:06;92986.88;;;4.66;95.52
59009;BME280;44794;42.652;23.318;2023-12-22T01:28:31;93015.09;;;4.33;98.38
59009;BME280;44794;42.652;23.318;2023-12-22T01:30:58;92991.53;;;4.61;98.34
59009;BME280;44794;42.652;23.318;2023-12-22T01:33:23;93002.94;;;4.90;97.77
59009;BME280;44794;42.652;23.318;2023-12-22T01:35:48;93006.78;;;5.06;96.05
59009;BME280;44794;42.652;23.318;2023-12-22T01:38:14;93012.09;;;4.94;94.90
59009;BME280;44794;42.652;23.318;2023-12-22T01:40:39;92997.78;;;5.22;93.58
59009;BME280;44794;42.652;23.318;2023-12-22T01:43:04;92991.53;;;4.72;94.71
59009;BME280;44794;42.652;23.318;2023-12-22T01:45:29;92975.16;;;4.84;95.34
59009;BME280;44794;42.652;23.318;2023-12-22T01:47:55;92984.69;;;5.04;94.25
59009;BME280;44794;42.652;23.318;2023-12-22T01:50:20;92966.81;;;4.91;94.77
59009;BME280;44794;42.652;23.318;2023-12-22T01:52:46;92963.69;;;4.88;92.40
59009;BME280;44794;42.652;23.318;2023-12-22T01:55:12;92971.63;;;4.74;95.15
59009;BME280;44794;42.652;23.318;2023-12-22T01:57:38;92964.06;;;4.83;94.53
59009;BME280;44794;42.652;23.318;2023-12-22T02:00:05;92954.09;;;4.90;95.04
59009;BME280;44794;42.652;23.318;2023-12-22T02:02:31;92965.25;;;4.46;96.11
59009;BME280;44794;42.652;23.318;2023-12-22T02:04:57;92916.09;;;4.07;99.68
59009;BME280;44794;42.652;23.318;2023-12-22T02:07:22;92944.22;;;4.31;100.00
59009;BME280;44794;42.652;23.318;2023-12-22T02:09:48;92953.69;;;4.30;100.00
59009;BME280;44794;42.652;23.318;2023-12-22T02:12:13;92941.06;;;4.71;98.60
59009;BME280;44794;42.652;23.318;2023-12-22T02:14:38;92957.41;;;4.70;96.40
59009;BME280;44794;42.652;23.318;2023-12-22T02:17:18;92945.22;;;4.83;96.35
59009;BME280;44794;42.652;23.318;2023-12-22T02:19:47;92947.16;;;4.59;96.11
59009;BME280;44794;42.652;23.318;2023-12-22T02:22:13;92958.53;;;4.88;96.28
59009;BME280;44794;42.652;23.318;2023-12-22T02:24:39;92954.50;;;5.17;93.21
59009;BME280;44794;42.652;23.318;2023-12-22T02:29:35;92951.13;;;5.47;92.10
59009;BME280;44794;42.652;23.318;2023-12-22T02:32:02;92951.34;;;5.24;91.97
59009;BME280;44794;42.652;23.318;2023-12-22T02:34:29;92950.88;;;5.50;90.46
59009;BME280;44794;42.652;23.318;2023-12-22T02:36:55;92960.56;;;5.26;90.38
59009;BME280;44794;42.652;23.318;2023-12-22T02:39:21;92951.81;;;5.18;91.30
59009;BME280;44794;42.652;23.318;2023-12-22T02:41:47;92948.13;;;5.31;91.37
59009;BME280;44794;42.652;23.318;2023-12-22T02:44:12;92948.59;;;5.36;90.42
59009;BME280;44794;42.652;23.318;2023-12-22T02:46:38;92950.19;;;5.48;89.95
59009;BME280;44794;42.652;23.318;2023-12-22T02:49:03;92952.47;;;5.62;88.64
59009;BME280;44794;42.652;23.318;2023-12-22T02:51:28;92945.59;;;5.72;87.10
59009;BME280;44794;42.652;23.318;2023-12-22T02:53:53;92951.59;;;5.73;86.24
59009;BME280;44794;42.652;23.318;2023-12-22T02:56:19;92933.97;;;5.89;86.26
59009;BME280;44794;42.652;23.318;2023-12-22T02:58:44;92934.22;;;5.86;85.91
59009;BME280;44794;42.652;23.318;2023-12-22T03:01:10;92923.88;;;5.65;85.53
59009;BME280;44794;42.652;23.318;2023-12-22T03:03:35;92926.81;;;5.92;85.55
59009;BME280;44794;42.652;23.318;2023-12-22T03:06:00;92912.97;;;6.13;83.86
59009;BME280;44794;42.652;23.318;2023-12-22T03:08:27;92913.19;;;5.81;83.73
59009;BME280;44794;42.652;23.318;2023-12-22T03:10:52;92910.53;;;5.71;86.04
59009;BME280;44794;42.652;23.318;2023-12-22T03:13:17;92921.91;;;5.89;85.39
59009;BME280;44794;42.652;23.318;2023-12-22T03:15:42;92916.63;;;5.70;84.81
59009;BME280;44794;42.652;23.318;2023-12-22T03:18:10;92927.53;;;5.63;85.50
59009;BME280;44794;42.652;23.318;2023-12-22T03:20:35;92926.06;;;5.81;84.03
59009;BME280;44794;42.652;23.318;2023-12-22T03:23:00;92920.31;;;5.25;87.83
59009;BME280;44794;42.652;23.318;2023-12-22T03:25:26;92933.47;;;5.12;89.14
59009;BME280;44794;42.652;23.318;2023-12-22T03:27:51;92921.38;;;5.23;90.58
59009;BME280;44794;42.652;23.318;2023-12-22T03:30:16;92933.03;;;5.38;90.79
59009;BME280;44794;42.652;23.318;2023-12-22T03:32:42;92937.66;;;5.75;89.46
59009;BME280;44794;42.652;23.318;2023-12-22T03:35:07;92943.84;;;6.04;87.54
59009;BME280;44794;42.652;23.318;2023-12-22T03:37:32;92941.09;;;6.26;85.35
59009;BME280;44794;42.652;23.318;2023-12-22T03:39:57;92935.78;;;6.48;83.75
59009;BME280;44794;42.652;23.318;2023-12-22T03:42:23;92941.75;;;6.48;81.18
59009;BME280;44794;42.652;23.318;2023-12-22T03:44:48;92942.31;;;6.52;80.67
59009;BME280;44794;42.652;23.318;2023-12-22T03:47:13;92918.09;;;6.34;82.83
59009;BME280;44794;42.652;23.318;2023-12-22T03:49:40;92922.41;;;6.33;82.33
59009;BME280;44794;42.652;23.318;2023-12-22T03:52:05;92933.97;;;6.39;82.07
59009;BME280;44794;42.652;23.318;2023-12-22T03:54:30;92935.50;;;6.51;81.75
59009;BME280;44794;42.652;23.318;2023-12-22T03:56:56;92929.59;;;6.60;81.04
59009;BME280;44794;42.652;23.318;2023-12-22T03:59:21;92936.56;;;6.69;80.72
59009;BME280;44794;42.652;23.318;2023-12-22T04:01:50;92930.41;;;6.69;81.07
59009;BME280;44794;42.652;23.318;2023-12-22T04:04:15;92932.13;;;6.89;79.80
59009;BME280;44794;42.652;23.318;2023-12-22T04:06:40;92935.41;;;7.01;78.77
59009;BME280;44794;42.652;23.318;2023-12-22T04:09:06;92939.50;;;7.13;77.79
59009;BME280;44794;42.652;23.318;2023-12-22T04:11:31;92941.97;;;7.14;77.17
59009;BME280;44794;42.652;23.318;2023-12-22T04:13:57;92939.06;;;7.08;76.31
59009;BME280;44794;42.652;23.318;2023-12-22T04:16:22;92933.13;;;7.07;76.80
59009;BME280;44794;42.652;23.318;2023-12-22T04:18:47;92934.06;;;7.16;77.02
59009;BME280;44794;42.652;23.318;2023-12-22T04:21:13;92932.97;;;7.09;76.32
59009;BME280;44794;42.652;23.318;2023-12-22T04:23:38;92931.63;;;7.14;75.58
59009;BME280;44794;42.652;23.318;2023-12-22T04:26:03;92922.94;;;7.15;76.49
59009;BME280;44794;42.652;23.318;2023-12-22T04:28:29;92925.63;;;7.04;77.18
59009;BME280;44794;42.652;23.318;2023-12-22T04:30:54;92914.34;;;7.05;77.51
59009;BME280;44794;42.652;23.318;2023-12-22T04:33:19;92918.84;;;7.03;77.76
59009;BME280;44794;42.652;23.318;2023-12-22T04:35:44;92913.38;;;6.87;77.43
59009;BME280;44794;42.652;23.318;2023-12-22T04:38:09;92915.00;;;6.79;79.84
59009;BME280;44794;42.652;23.318;2023-12-22T04:40:35;92904.94;;;6.85;80.13
59009;BME280;44794;42.652;23.318;2023-12-22T04:43:00;92907.91;;;6.71;79.38
59009;BME280;44794;42.652;23.318;2023-12-22T04:45:26;92911.19;;;6.73;78.33
59009;BME280;44794;42.652;23.318;2023-12-22T04:47:51;92892.91;;;6.47;80.36
59009;BME280;44794;42.652;23.318;2023-12-22T04:50:16;92891.28;;;6.46;82.82
59009;BME280;44794;42.652;23.318;2023-12-22T04:52:42;92879.31;;;6.15;85.31
59009;BME280;44794;42.652;23.318;2023-12-22T04:55:07;92885.94;;;5.26;91.32
59009;BME280;44794;42.652;23.318;2023-12-22T04:57:32;92875.78;;;5.25;96.46
59009;BME280;44794;42.652;23.318;2023-12-22T04:59:57;92861.59;;;5.51;95.58
59009;BME280;44794;42.652;23.318;2023-12-22T05:02:23;92868.06;;;5.25;97.12
59009;BME280;44794;42.652;23.318;2023-12-22T05:04:48;92865.41;;;5.36;96.16
59009;BME280;44794;42.652;23.318;2023-12-22T05:07:13;92862.09;;;5.24;96.90
59009;BME280;44794;42.652;23.318;2023-12-22T05:09:41;92853.59;;;4.82;100.00
59009;BME280;44794;42.652;23.318;2023-12-22T05:12:06;92848.94;;;5.07;100.00
59009;BME280;44794;42.652;23.318;2023-12-22T05:14:32;92847.06;;;5.09;100.00
59009;BME280;44794;42.652;23.318;2023-12-22T05:16:57;92853.94;;;5.19;100.00
59009;BME280;44794;42.652;23.318;2023-12-22T05:19:22;92846.53;;;4.95;100.00
59009;BME280;44794;42.652;23.318;2023-12-22T05:21:47;92844.88;;;5.05;100.00
59009;BME280;44794;42.652;23.318;2023-12-22T05:24:14;92841.59;;;5.03;100.00
59009;BME280;44794;42.652;23.318;2023-12-22T05:26:39;92842.50;;;5.13;100.00
59009;BME280;44794;42.652;23.318;2023-12-22T05:29:05;92852.13;;;5.31;100.00
59009;BME280;44794;42.652;23.318;2023-12-22T05:31:30;92856.50;;;5.60;100.00
59009;BME280;44794;42.652;23.318;2023-12-22T05:33:57;92876.91;;;5.93;99.27
59009;BME280;44794;42.652;23.318;2023-12-22T05:36:23;92867.75;;;5.59;99.59
59009;BME280;44794;42.652;23.318;2023-12-22T05:38:50;92875.78;;;5.45;100.00
59009;BME280;44794;42.652;23.318;2023-12-22T05:41:15;92880.56;;;5.29;100.00
59009;BME280;44794;42.652;23.318;2023-12-22T05:43:42;92884.59;;;5.63;100.00
59009;BME280;44794;42.652;23.318;2023-12-22T05:46:08;92875.38;;;5.81;100.00
59009;BME280;44794;42.652;23.318;2023-12-22T05:48:34;92867.03;;;5.89;98.07
59009;BME280;44794;42.652;23.318;2023-12-22T05:51:00;92853.13;;;5.60;99.37
59009;BME280;44794;42.652;23.318;2023-12-22T05:53:27;92853.19;;;5.69;98.31
59009;BME280;44794;42.652;23.318;2023-12-22T05:55:52;92852.84;;;5.63;98.80
59009;BME280;44794;42.652;23.318;2023-12-22T05:58:17;92863.22;;;5.72;100.00
59009;BME280;44794;42.652;23.318;2023-12-22T06:00:44;92867.22;;;5.65;99.20
59009;BME280;44794;42.652;23.318;2023-12-22T06:03:09;92834.78;;;5.13;100.00
59009;BME280;44794;42.652;23.318;2023-12-22T06:05:35;92840.38;;;5.18;100.00
59009;BME280;44794;42.652;23.318;2023-12-22T06:08:00;92845.97;;;5.22;100.00
59009;BME280;44794;42.652;23.318;2023-12-22T06:10:25;92842.81;;;5.39;100.00
59009;BME280;44794;42.652;23.318;2023-12-22T06:12:50;92851.38;;;5.40;100.00
59009;BME280;44794;42.652;23.318;2023-12-22T06:15:16;92864.31;;;5.49;100.00
59009;BME280;44794;42.652;23.318;2023-12-22T06:17:41;92867.69;;;5.70;100.00
59009;BME280;44794;42.652;23.318;2023-12-22T06:20:06;92865.50;;;5.86;100.00
59009;BME280;44794;42.652;23.318;2023-12-22T06:22:32;92871.53;;;5.55;100.00
59009;BME280;44794;42.652;23.318;2023-12-22T06:24:57;92859.34;;;5.57;100.00
59009;BME280;44794;42.652;23.318;2023-12-22T06:27:22;92859.53;;;5.45;100.00
59009;BME280;44794;42.652;23.318;2023-12-22T06:29:48;92870.78;;;5.64;100.00
59009;BME280;44794;42.652;23.318;2023-12-22T06:32:13;92884.72;;;5.82;100.00
59009;BME280;44794;42.652;23.318;2023-12-22T06:34:38;92884.88;;;6.10;100.00
59009;BME280;44794;42.652;23.318;2023-12-22T06:37:04;92885.59;;;6.22;99.61
59009;BME280;44794;42.652;23.318;2023-12-22T06:39:29;92888.13;;;6.12;100.00
59009;BME280;44794;42.652;23.318;2023-12-22T06:41:54;92879.00;;;6.38;99.13
59009;BME280;44794;42.652;23.318;2023-12-22T06:44:19;92900.50;;;6.48;96.95
59009;BME280;44794;42.652;23.318;2023-12-22T06:46:45;92897.47;;;6.34;96.72
59009;BME280;44794;42.652;23.318;2023-12-22T06:49:10;92885.00;;;6.39;97.43
59009;BME280;44794;42.652;23.318;2023-12-22T06:51:35;92892.19;;;6.35;97.90
59009;BME280;44794;42.652;23.318;2023-12-22T06:54:01;92880.31;;;6.63;97.53
59009;BME280;44794;42.652;23.318;2023-12-22T06:56:28;92900.69;;;6.66;95.39
59009;BME280;44794;42.652;23.318;2023-12-22T06:58:55;92901.09;;;6.70;95.16
59009;BME280;44794;42.652;23.318;2023-12-22T07:01:23;92871.25;;;6.68;97.21
59009;BME280;44794;42.652;23.318;2023-12-22T07:03:49;92904.22;;;6.65;95.73
59009;BME280;44794;42.652;23.318;2023-12-22T07:06:15;92888.19;;;6.22;97.42
59009;BME280;44794;42.652;23.318;2023-12-22T07:08:40;92884.78;;;6.21;99.34
59009;BME280;44794;42.652;23.318;2023-12-22T07:11:08;92897.47;;;6.04;100.00
59009;BME280;44794;42.652;23.318;2023-12-22T07:13:33;92875.34;;;6.01;100.00
59009;BME280;44794;42.652;23.318;2023-12-22T07:15:59;92876.97;;;6.32;100.00
59009;BME280;44794;42.652;23.318;2023-12-22T07:18:24;92905.91;;;6.45;100.00
59009;BME280;44794;42.652;23.318;2023-12-22T07:20:50;92894.59;;;6.67;99.75
59009;BME280;44794;42.652;23.318;2023-12-22T07:23:15;92901.56;;;6.75;98.91
59009;BME280;44794;42.652;23.318;2023-12-22T07:25:41;92916.28;;;7.13;97.06
59009;BME280;44794;42.652;23.318;2023-12-22T07:28:06;92915.75;;;7.09;96.38
59009;BME280;44794;42.652;23.318;2023-12-22T07:30:31;92907.72;;;7.12;95.95
59009;BME280;44794;42.652;23.318;2023-12-22T07:32:56;92908.81;;;7.19;96.00
59009;BME280;44794;42.652;23.318;2023-12-22T07:35:22;92906.91;;;7.21;95.15
59009;BME280;44794;42.652;23.318;2023-12-22T07:37:47;92912.06;;;7.21;96.52
59009;BME280;44794;42.652;23.318;2023-12-22T07:40:12;92909.91;;;7.26;96.70
59009;BME280;44794;42.652;23.318;2023-12-22T07:42:38;92908.16;;;7.45;96.48
59009;BME280;44794;42.652;23.318;2023-12-22T07:45:04;92912.22;;;7.48;96.14
59009;BME280;44794;42.652;23.318;2023-12-22T07:47:29;92909.09;;;7.35;96.42
59009;BME280;44794;42.652;23.318;2023-12-22T07:49:54;92913.19;;;7.66;95.46
59009;BME280;44794;42.652;23.318;2023-12-22T07:52:20;92937.34;;;7.37;98.07
59009;BME280;44794;42.652;23.318;2023-12-22T07:54:45;92918.47;;;7.36;99.39
59009;BME280;44794;42.652;23.318;2023-12-22T07:57:12;92923.09;;;7.33;99.97
59009;BME280;44794;42.652;23.318;2023-12-22T07:59:37;92926.22;;;7.27;100.00
59009;BME280;44794;42.652;23.318;2023-12-22T08:02:02;92934.44;;;7.02;100.00
59009;BME280;44794;42.652;23.318;2023-12-22T08:04:28;92930.28;;;7.29;100.00
59009;BME280;44794;42.652;23.318;2023-12-22T08:06:53;92935.31;;;7.21;100.00
59009;BME280;44794;42.652;23.318;2023-12-22T08:09:18;92963.69;;;7.12;100.00
59009;BME280;44794;42.652;23.318;2023-12-22T08:11:43;92937.63;;;7.24;100.00
59009;BME280;44794;42.652;23.318;2023-12-22T08:14:11;92947.88;;;6.86;100.00
59009;BME280;44794;42.652;23.318;2023-12-22T08:16:37;92953.63;;;7.09;100.00
59009;BME280;44794;42.652;23.318;2023-12-22T08:19:02;92958.94;;;7.26;100.00
59009;BME280;44794;42.652;23.318;2023-12-22T08:21:27;92958.06;;;7.55;100.00
59009;BME280;44794;42.652;23.318;2023-12-22T08:23:53;92975.44;;;7.44;100.00
59009;BME280;44794;42.652;23.318;2023-12-22T08:26:18;92961.84;;;7.42;100.00
59009;BME280;44794;42.652;23.318;2023-12-22T08:28:44;92962.94;;;7.49;100.00
59009;BME280;44794;42.652;23.318;2023-12-22T08:31:09;92976.69;;;7.68;100.00
59009;BME280;44794;42.652;23.318;2023-12-22T08:33:35;92972.59;;;7.85;100.00
59009;BME280;44794;42.652;23.318;2023-12-22T08:36:00;92960.19;;;7.50;100.00
59009;BME280;44794;42.652;23.318;2023-12-22T08:38:25;92956.81;;;7.69;100.00
59009;BME280;44794;42.652;23.318;2023-12-22T08:40:51;92962.63;;;7.33;100.00
59009;BME280;44794;42.652;23.318;2023-12-22T08:43:17;92965.38;;;7.60;100.00
59009;BME280;44794;42.652;23.318;2023-12-22T08:45:42;92954.78;;;7.82;100.00
59009;BME280;44794;42.652;23.318;2023-12-22T08:48:07;92964.69;;;7.96;100.00
59009;BME280;44794;42.652;23.318;2023-12-22T08:50:33;92958.56;;;8.16;100.00
59009;BME280;44794;42.652;23.318;2023-12-22T08:52:58;92963.63;;;8.08;100.00
59009;BME280;44794;42.652;23.318;2023-12-22T08:55:23;92956.81;;;8.16;100.00
59009;BME280;44794;42.652;23.318;2023-12-22T08:57:49;92964.44;;;8.18;100.00
59009;BME280;44794;42.652;23.318;2023-12-22T09:00:14;92949.06;;;7.78;100.00
59009;BME280;44794;42.652;23.318;2023-12-22T09:02:40;92963.63;;;7.79;100.00
59009;BME280;44794;42.652;23.318;2023-12-22T09:05:05;92977.06;;;8.02;100.00
59009;BME280;44794;42.652;23.318;2023-12-22T09:07:32;92975.19;;;7.94;100.00
59009;BME280;44794;42.652;23.318;2023-12-22T09:09:57;92977.63;;;8.24;100.00
59009;BME280;44794;42.652;23.318;2023-12-22T09:12:22;92990.69;;;8.32;100.00
59009;BME280;44794;42.652;23.318;2023-12-22T09:14:49;93000.97;;;8.51;100.00
59009;BME280;44794;42.652;23.318;2023-12-22T09:17:14;92990.09;;;8.47;100.00
59009;BME280;44794;42.652;23.318;2023-12-22T09:19:40;92997.53;;;8.69;100.00
59009;BME280;44794;42.652;23.318;2023-12-22T09:22:07;93009.06;;;8.84;100.00
59009;BME280;44794;42.652;23.318;2023-12-22T09:24:33;93012.06;;;9.16;100.00
59009;BME280;44794;42.652;23.318;2023-12-22T09:26:58;93018.84;;;9.26;99.08
59009;BME280;44794;42.652;23.318;2023-12-22T09:29:28;93004.03;;;9.19;99.01
59009;BME280;44794;42.652;23.318;2023-12-22T09:31:53;93009.75;;;9.13;98.55
59009;BME280;44794;42.652;23.318;2023-12-22T09:34:18;93004.03;;;9.19;98.04
59009;BME280;44794;42.652;23.318;2023-12-22T09:36:43;92999.22;;;9.24;98.37
59009;BME280;44794;42.652;23.318;2023-12-22T09:39:09;93003.09;;;9.10;97.38
59009;BME280;44794;42.652;23.318;2023-12-22T09:41:34;92990.16;;;9.10;98.28
59009;BME280;44794;42.652;23.318;2023-12-22T09:43:59;92989.81;;;9.23;97.87
59009;BME280;44794;42.652;23.318;2023-12-22T09:46:26;92987.28;;;9.40;96.85
59009;BME280;44794;42.652;23.318;2023-12-22T09:48:52;92981.25;;;8.86;97.21
59009;BME280;44794;42.652;23.318;2023-12-22T09:51:17;92963.78;;;8.61;100.00
59009;BME280;44794;42.652;23.318;2023-12-22T09:53:43;92962.09;;;8.05;100.00
59009;BME280;44794;42.652;23.318;2023-12-22T09:56:10;92953.03;;;7.82;100.00
59009;BME280;44794;42.652;23.318;2023-12-22T09:58:36;92949.56;;;8.29;100.00
59009;BME280;44794;42.652;23.318;2023-12-22T10:01:02;92948.91;;;8.27;100.00
59009;BME280;44794;42.652;23.318;2023-12-22T10:03:30;92951.44;;;8.82;100.00
59009;BME280;44794;42.652;23.318;2023-12-22T10:05:56;92961.34;;;8.96;100.00
59009;BME280;44794;42.652;23.318;2023-12-22T10:08:21;92958.41;;;9.35;100.00
59009;BME280;44794;42.652;23.318;2023-12-22T10:10:47;92949.19;;;9.23;100.00
59009;BME280;44794;42.652;23.318;2023-12-22T10:13:12;92946.94;;;9.38;100.00
59009;BME280;44794;42.652;23.318;2023-12-22T10:15:39;92961.06;;;9.26;100.00
59009;BME280;44794;42.652;23.318;2023-12-22T10:18:09;92957.88;;;9.32;100.00
59009;BME280;44794;42.652;23.318;2023-12-22T10:20:34;92948.88;;;9.70;100.00
59009;BME280;44794;42.652;23.318;2023-12-22T10:23:00;92946.09;;;9.81;96.90
59009;BME280;44794;42.652;23.318;2023-12-22T10:25:28;92920.72;;;9.93;95.49
59009;BME280;44794;42.652;23.318;2023-12-22T10:27:57;92930.53;;;10.16;95.04
59009;BME280;44794;42.652;23.318;2023-12-22T10:30:23;92926.66;;;10.46;93.86
59009;BME280;44794;42.652;23.318;2023-12-22T10:32:52;92925.44;;;10.32;91.57
59009;BME280;44794;42.652;23.318;2023-12-22T10:35:17;92924.25;;;10.77;91.01
59009;BME280;44794;42.652;23.318;2023-12-22T10:37:43;92931.00;;;10.96;85.99
59009;BME280;44794;42.652;23.318;2023-12-22T10:40:10;92930.94;;;11.21;83.66
59009;BME280;44794;42.652;23.318;2023-12-22T10:42:36;92934.13;;;11.07;84.68
59009;BME280;44794;42.652;23.318;2023-12-22T10:45:01;92913.34;;;10.74;87.54
59009;BME280;44794;42.652;23.318;2023-12-22T10:47:27;92905.06;;;11.04;89.31
59009;BME280;44794;42.652;23.318;2023-12-22T10:49:52;92901.28;;;11.39;87.16
59009;BME280;44794;42.652;23.318;2023-12-22T10:52:19;92895.25;;;11.31;83.98
59009;BME280;44794;42.652;23.318;2023-12-22T10:54:45;92886.06;;;11.52;85.50
59009;BME280;44794;42.652;23.318;2023-12-22T10:57:11;92890.28;;;11.53;85.56
59009;BME280;44794;42.652;23.318;2023-12-22T10:59:38;92888.34;;;11.55;86.41
59009;BME280;44794;42.652;23.318;2023-12-22T11:02:05;92883.16;;;11.55;86.32
59009;BME280;44794;42.652;23.318;2023-12-22T11:04:32;92881.56;;;11.70;87.38
59009;BME280;44794;42.652;23.318;2023-12-22T11:07:00;92877.91;;;11.47;88.59
59009;BME280;44794;42.652;23.318;2023-12-22T11:09:28;92866.19;;;11.35;90.64
59009;BME280;44794;42.652;23.318;2023-12-22T11:11:56;92849.91;;;11.18;94.84
59009;BME280;44794;42.652;23.318;2023-12-22T11:14:22;92846.53;;;11.41;93.99
59009;BME280;44794;42.652;23.318;2023-12-22T11:16:48;92838.47;;;11.68;92.10
59009;BME280;44794;42.652;23.318;2023-12-22T11:19:14;92827.09;;;11.61;93.20
59009;BME280;44794;42.652;23.318;2023-12-22T11:21:40;92821.19;;;11.27;97.06
59009;BME280;44794;42.652;23.318;2023-12-22T11:24:05;92824.59;;;11.43;97.43
59009;BME280;44794;42.652;23.318;2023-12-22T11:26:31;92825.16;;;11.95;93.82
59009;BME280;44794;42.652;23.318;2023-12-22T11:28:57;92838.97;;;11.55;89.84
59009;BME280;44794;42.652;23.318;2023-12-22T11:31:22;92850.41;;;10.13;84.26
59009;BME280;44794;42.652;23.318;2023-12-22T11:33:49;92858.53;;;9.75;83.61
59009;BME280;44794;42.652;23.318;2023-12-22T11:36:15;92857.19;;;10.32;84.59
59009;BME280;44794;42.652;23.318;2023-12-22T11:38:40;92871.03;;;9.80;82.33
59009;BME280;44794;42.652;23.318;2023-12-22T11:41:09;92858.41;;;9.42;84.92
59009;BME280;44794;42.652;23.318;2023-12-22T11:43:35;92879.94;;;9.25;86.22
59009;BME280;44794;42.652;23.318;2023-12-22T11:46:04;92885.00;;;9.00;87.92
59009;BME280;44794;42.652;23.318;2023-12-22T11:48:30;92885.16;;;8.72;89.49
59009;BME280;44794;42.652;23.318;2023-12-22T11:50:55;92888.94;;;9.04;89.65
59009;BME280;44794;42.652;23.318;2023-12-22T11:53:21;92887.50;;;8.92;88.83
59009;BME280;44794;42.652;23.318;2023-12-22T11:58:40;92881.75;;;8.98;88.91
59009;BME280;44794;42.652;23.318;2023-12-22T12:01:09;92882.22;;;9.11;88.68
59009;BME280;44794;42.652;23.318;2023-12-22T12:03:40;92886.75;;;9.26;86.55
59009;BME280;44794;42.652;23.318;2023-12-22T12:08:50;92894.72;;;8.98;84.36
59009;BME280;44794;42.652;23.318;2023-12-22T12:11:16;92886.53;;;8.93;83.84
59009;BME280;44794;42.652;23.318;2023-12-22T12:13:42;92898.63;;;8.75;84.28
59009;BME280;44794;42.652;23.318;2023-12-22T12:16:09;92887.69;;;9.08;84.91
59009;BME280;44794;42.652;23.318;2023-12-22T12:18:35;92903.75;;;9.11;82.81
59009;BME280;44794;42.652;23.318;2023-12-22T12:21:00;92885.59;;;8.94;84.82
59009;BME280;44794;42.652;23.318;2023-12-22T12:23:26;92881.22;;;8.68;84.79
59009;BME280;44794;42.652;23.318;2023-12-22T12:25:53;92864.06;;;8.94;84.15
59009;BME280;44794;42.652;23.318;2023-12-22T12:28:18;92867.00;;;8.81;80.93
59009;BME280;44794;42.652;23.318;2023-12-22T12:30:49;92861.09;;;8.89;79.58
59009;BME280;44794;42.652;23.318;2023-12-22T12:33:21;92879.47;;;8.95;78.00
59009;BME280;44794;42.652;23.318;2023-12-22T12:35:48;92879.69;;;9.01;76.99
59009;BME280;44794;42.652;23.318;2023-12-22T12:38:13;92873.50;;;9.12;76.45
59009;BME280;44794;42.652;23.318;2023-12-22T12:40:41;92842.19;;;8.61;76.58
59009;BME280;44794;42.652;23.318;2023-12-22T12:43:12;92843.78;;;8.72;76.55
59009;BME280;44794;42.652;23.318;2023-12-22T12:45:44;92834.50;;;8.96;75.33
59009;BME280;44794;42.652;23.318;2023-12-22T12:48:09;92824.00;;;8.53;75.37
59009;BME280;44794;42.652;23.318;2023-12-22T12:50:35;92826.66;;;8.61;77.11
59009;BME280;44794;42.652;23.318;2023-12-22T12:53:01;92841.81;;;8.56;73.69
59009;BME280;44794;42.652;23.318;2023-12-22T12:55:26;92846.94;;;8.39;69.32
59009;BME280;44794;42.652;23.318;2023-12-22T12:57:52;92861.31;;;8.51;69.21